Time;durP1;ratioP1;P1;durP2;ratioP2;P2;SDS_P1;SDS_P2;PMS_P1;PMS_P2;Temp;Humidity;BMP_temperature;BMP_pressure;BME280_temperature;BME280_humidity;BME280_pressure;Samples;Min_cycle;Max_cycle;Signal;HPM_P1;HPM_P2
2021/04/10 08:33:09;;;;;;;15.90;7.10;;;9.00;99.90;;;;;;6115157;23;20191;-71
2021/04/10 08:35:37;;;;;;;16.30;7.80;;;9.10;99.90;;;;;;6127321;23;20187;-70
2021/04/10 08:38:04;;;;;;;14.10;7.63;;;9.00;99.90;;;;;;6127486;23;20199;-72
2021/04/10 08:40:33;;;;;;;14.57;7.60;;;9.20;99.90;;;;;;6127370;23;20183;-70
2021/04/10 08:43:02;;;;;;;14.07;7.10;;;9.40;99.90;;;;;;6124247;23;20178;-78
2021/04/10 08:45:30;;;;;;;17.23;8.00;;;9.20;99.90;;;;;;6125147;23;20221;-82
2021/04/10 08:48:00;;;;;;;19.53;7.73;;;9.00;99.90;;;;;;6125499;23;20187;-79
2021/04/10 08:50:28;;;;;;;15.47;7.87;;;8.90;99.90;;;;;;6124962;23;20647;-73
2021/04/10 08:52:55;;;;;;;15.43;8.00;;;8.90;99.90;;;;;;6125444;23;20634;-77
2021/04/10 08:55:22;;;;;;;13.83;7.83;;;9.00;99.90;;;;;;6125925;23;20178;-78
2021/04/10 08:57:49;;;;;;;16.30;7.00;;;9.10;99.90;;;;;;6125318;23;20187;-78
2021/04/10 09:00:21;;;;;;;15.93;8.17;;;9.10;99.90;;;;;;6125584;23;20189;-76
2021/04/10 09:02:51;;;;;;;13.97;6.40;;;9.10;99.90;;;;;;6125756;23;20178;-76
2021/04/10 09:05:18;;;;;;;12.53;6.77;;;9.30;99.90;;;;;;6125444;23;20297;-75
2021/04/10 09:08:06;;;;;;;13.50;7.23;;;9.30;99.90;;;;;;6125544;23;20211;-74
2021/04/10 09:10:50;;;;;;;16.47;7.13;;;9.10;99.90;;;;;;6125043;23;20254;-78
2021/04/10 09:13:44;;;;;;;14.70;7.30;;;9.00;99.90;;;;;;6124606;23;20185;-79
2021/04/10 09:16:39;;;;;;;15.73;7.73;;;8.80;99.90;;;;;;6122741;23;20185;-76
2021/04/10 09:19:13;;;;;;;13.50;7.13;;;8.90;99.90;;;;;;6125402;23;20206;-74
2021/04/10 09:21:42;;;;;;;14.93;7.33;;;9.10;99.90;;;;;;6124700;23;20267;-72
2021/04/10 09:24:30;;;;;;;15.83;7.80;;;8.90;99.90;;;;;;6125238;23;20207;-76
2021/04/10 09:27:03;;;;;;;16.67;7.83;;;8.80;99.90;;;;;;6125989;23;20197;-76
2021/04/10 09:29:30;;;;;;;14.47;8.00;;;8.50;99.90;;;;;;6125715;23;20202;-75
2021/04/10 09:31:58;;;;;;;16.07;7.67;;;8.60;99.90;;;;;;6125037;23;20200;-77
2021/04/10 09:34:55;;;;;;;15.27;8.37;;;8.50;99.90;;;;;;6125407;23;20186;-80
2021/04/10 09:37:46;;;;;;;14.10;7.73;;;8.50;99.90;;;;;;6125934;23;20201;-76
2021/04/10 09:40:18;;;;;;;17.00;8.87;;;8.50;99.90;;;;;;6120752;23;20179;-74
2021/04/10 09:42:46;;;;;;;16.33;8.20;;;8.50;99.90;;;;;;6124901;23;20210;-74
2021/04/10 09:45:14;;;;;;;15.87;8.20;;;8.40;99.90;;;;;;6125516;23;20210;-72
2021/04/10 09:48:21;;;;;;;13.53;8.27;;;8.40;99.90;;;;;;6127083;23;20183;-73
2021/04/10 09:51:06;;;;;;;17.87;9.03;;;8.40;99.90;;;;;;6126682;23;20178;-72
2021/04/10 09:53:34;;;;;;;14.13;8.40;;;8.60;99.90;;;;;;6126596;23;20507;-73
2021/04/10 09:56:03;;;;;;;13.27;7.90;;;8.70;99.90;;;;;;6128246;23;20182;-76
2021/04/10 09:58:35;;;;;;;14.67;7.67;;;8.80;99.90;;;;;;6127329;23;20199;-75
2021/04/10 10:01:06;;;;;;;15.17;8.20;;;8.80;99.90;;;;;;6127666;23;20472;-73
2021/04/10 10:03:33;;;;;;;14.83;7.73;;;8.90;99.90;;;;;;6126850;23;20262;-73
2021/04/10 10:05:59;;;;;;;13.17;7.50;;;9.00;99.90;;;;;;6124159;23;20179;-78
2021/04/10 10:08:31;;;;;;;11.83;7.43;;;9.20;99.90;;;;;;6129023;23;20210;-74
2021/04/10 10:10:59;;;;;;;16.13;7.97;;;9.20;99.90;;;;;;6125446;23;20626;-73
2021/04/10 10:13:31;;;;;;;14.57;6.80;;;9.00;99.90;;;;;;6126715;23;20513;-72
2021/04/10 10:15:58;;;;;;;11.57;7.23;;;9.10;99.90;;;;;;6126842;23;20495;-72
2021/04/10 10:18:27;;;;;;;12.33;6.67;;;9.20;99.90;;;;;;6126334;23;20673;-73
2021/04/10 10:20:57;;;;;;;11.13;6.70;;;9.30;99.90;;;;;;6126231;23;20189;-73
2021/04/10 10:23:25;;;;;;;9.13;5.87;;;9.30;99.90;;;;;;6126610;23;20213;-73
2021/04/10 10:25:51;;;;;;;8.43;5.53;;;9.60;99.90;;;;;;6127597;23;20189;-73
2021/04/10 10:28:18;;;;;;;10.20;5.63;;;9.50;99.90;;;;;;6126850;23;20210;-73
2021/04/10 10:30:46;;;;;;;8.83;5.40;;;9.50;99.90;;;;;;6127056;23;20190;-73
2021/04/10 10:33:13;;;;;;;9.37;5.57;;;9.50;99.90;;;;;;6126249;23;20195;-73
2021/04/10 10:35:50;;;;;;;10.60;5.47;;;9.60;99.90;;;;;;6126160;23;20186;-72
2021/04/10 10:38:17;;;;;;;9.00;5.50;;;9.70;99.90;;;;;;6126026;23;20210;-72
2021/04/10 10:40:47;;;;;;;10.30;5.63;;;9.70;99.90;;;;;;6126810;23;20178;-73
2021/04/10 10:43:14;;;;;;;9.33;5.63;;;9.60;99.90;;;;;;6126671;23;20265;-72
2021/04/10 10:45:42;;;;;;;8.70;5.30;;;9.70;99.90;;;;;;6126542;23;20210;-73
2021/04/10 10:48:24;;;;;;;9.27;5.17;;;9.70;99.90;;;;;;6126506;23;20198;-73
2021/04/10 10:50:52;;;;;;;7.43;5.10;;;9.70;99.90;;;;;;6126514;23;20261;-73
2021/04/10 10:53:19;;;;;;;10.10;5.20;;;9.60;99.90;;;;;;6126652;23;20489;-73
2021/04/10 10:56:01;;;;;;;8.33;4.73;;;9.60;99.90;;;;;;6126245;23;20664;-73
2021/04/10 10:58:36;;;;;;;9.33;5.07;;;9.60;99.90;;;;;;6124730;23;20265;-75
2021/04/10 11:01:10;;;;;;;8.70;5.10;;;9.80;99.90;;;;;;6124698;23;20197;-74
2021/04/10 11:03:38;;;;;;;8.27;4.37;;;10.00;99.90;;;;;;6123271;23;20193;-75
2021/04/10 11:06:05;;;;;;;7.73;4.53;;;10.10;99.90;;;;;;6124492;23;20185;-73
2021/04/10 11:08:34;;;;;;;7.43;5.07;;;10.10;99.90;;;;;;6125821;23;20202;-72
2021/04/10 11:11:00;;;;;;;7.03;4.43;;;10.20;99.90;;;;;;6126104;23;20185;-73
2021/04/10 11:13:26;;;;;;;6.47;4.53;;;10.40;99.90;;;;;;6126409;23;20213;-72
2021/04/10 11:15:53;;;;;;;7.70;5.20;;;10.40;99.90;;;;;;6126054;23;20202;-73
2021/04/10 11:18:27;;;;;;;7.57;4.87;;;10.30;99.90;;;;;;6126423;23;20232;-72
2021/04/10 11:21:20;;;;;;;8.77;5.43;;;10.50;99.90;;;;;;6126594;23;20178;-72
2021/04/10 11:24:00;;;;;;;8.13;4.57;;;11.00;99.90;;;;;;6126418;23;20198;-73
2021/04/10 11:26:34;;;;;;;7.70;4.73;;;10.80;99.90;;;;;;6125875;23;20535;-72
2021/04/10 11:29:27;;;;;;;5.87;4.00;;;10.40;99.90;;;;;;6126201;23;20258;-71
2021/04/10 11:32:17;;;;;;;5.07;3.57;;;10.30;99.90;;;;;;6126214;23;20191;-72
2021/04/10 11:35:03;;;;;;;6.57;4.43;;;10.50;99.90;;;;;;6126359;23;20257;-72
2021/04/10 11:37:45;;;;;;;4.13;2.60;;;10.90;99.90;;;;;;6126347;23;20183;-71
2021/04/10 11:40:22;;;;;;;4.00;2.73;;;10.90;99.90;;;;;;6126385;23;20178;-71
2021/04/10 11:42:51;;;;;;;7.10;3.47;;;10.90;99.90;;;;;;6126023;23;20217;-71
2021/04/10 11:45:27;;;;;;;6.00;3.47;;;10.80;99.90;;;;;;6125958;23;20211;-71
2021/04/10 11:48:05;;;;;;;7.27;3.57;;;10.80;99.90;;;;;;6125608;23;20183;-71
2021/04/10 11:50:39;;;;;;;4.73;3.50;;;10.90;99.90;;;;;;6126483;23;20243;-70
2021/04/10 11:53:17;;;;;;;4.80;3.00;;;11.10;99.90;;;;;;6125917;23;20704;-70
2021/04/10 11:55:43;;;;;;;4.90;3.33;;;11.40;99.90;;;;;;6126015;23;20241;-72
2021/04/10 11:58:10;;;;;;;5.67;3.43;;;11.80;99.90;;;;;;6125492;23;20674;-71
2021/04/10 12:00:36;;;;;;;5.63;3.37;;;12.00;99.90;;;;;;6126454;23;20653;-70
2021/04/10 12:03:07;;;;;;;5.40;3.67;;;12.00;99.90;;;;;;6127681;23;20186;-70
2021/04/10 12:05:40;;;;;;;6.17;3.87;;;11.90;99.90;;;;;;6127541;23;20217;-71
2021/04/10 12:08:23;;;;;;;5.27;3.47;;;11.30;99.90;;;;;;6127401;23;20198;-70
2021/04/10 12:10:52;;;;;;;5.77;3.73;;;10.90;99.90;;;;;;6127799;23;20209;-70
2021/04/10 12:13:20;;;;;;;8.23;4.23;;;10.80;99.90;;;;;;6127938;23;20178;-71
2021/04/10 12:15:51;;;;;;;5.77;3.63;;;10.80;99.90;;;;;;6127861;23;20190;-70
2021/04/10 12:18:19;;;;;;;5.07;3.33;;;10.60;99.90;;;;;;6127501;23;20198;-71
2021/04/10 12:20:46;;;;;;;5.10;3.37;;;10.40;99.90;;;;;;6127673;23;20182;-70
2021/04/10 12:23:14;;;;;;;6.10;3.37;;;10.50;99.90;;;;;;6127703;23;20179;-70
2021/04/10 12:25:41;;;;;;;5.00;3.23;;;10.40;99.90;;;;;;6127229;23;20688;-70
2021/04/10 12:28:07;;;;;;;7.63;3.40;;;10.60;99.90;;;;;;6127342;23;20209;-71
2021/04/10 12:30:34;;;;;;;5.10;3.50;;;10.70;99.90;;;;;;6127299;23;20273;-70
2021/04/10 12:33:00;;;;;;;5.40;3.50;;;10.70;99.90;;;;;;6127129;23;20237;-71
2021/04/10 12:35:27;;;;;;;5.67;3.50;;;10.50;99.90;;;;;;6127714;23;20179;-70
2021/04/10 12:37:54;;;;;;;6.27;3.50;;;10.40;99.90;;;;;;6127623;23;20194;-69
2021/04/10 12:40:20;;;;;;;8.17;4.27;;;10.10;99.90;;;;;;6127527;23;20179;-69
2021/04/10 12:42:47;;;;;;;8.53;4.63;;;10.10;99.90;;;;;;6127474;23;20187;-69
2021/04/10 12:45:15;;;;;;;8.97;4.00;;;10.10;99.90;;;;;;6127150;23;20207;-69
2021/04/10 12:47:43;;;;;;;6.33;3.93;;;10.20;99.90;;;;;;6127337;23;20182;-70
2021/04/10 12:50:11;;;;;;;4.83;3.23;;;10.20;99.90;;;;;;6127485;23;20507;-69
2021/04/10 12:52:37;;;;;;;5.57;3.60;;;10.20;99.90;;;;;;6127483;23;20194;-69
2021/04/10 12:55:05;;;;;;;5.73;3.73;;;10.20;99.90;;;;;;6126923;23;20183;-69
2021/04/10 12:57:31;;;;;;;6.90;3.37;;;10.20;99.90;;;;;;6127335;23;20183;-71
2021/04/10 12:59:58;;;;;;;4.90;3.30;;;10.10;99.90;;;;;;6127082;23;20226;-71
2021/04/10 13:02:24;;;;;;;6.23;3.70;;;9.90;99.90;;;;;;6126954;23;20452;-73
2021/04/10 13:04:50;;;;;;;7.00;4.30;;;9.90;99.90;;;;;;6126877;23;20206;-73
2021/04/10 13:07:17;;;;;;;6.70;3.83;;;10.00;99.90;;;;;;6127461;23;20183;-73
2021/04/10 13:09:44;;;;;;;5.70;3.97;;;10.10;99.90;;;;;;6127114;23;20258;-73
2021/04/10 13:12:12;;;;;;;7.87;4.30;;;10.10;99.90;;;;;;6127121;23;20183;-73
2021/04/10 13:14:39;;;;;;;7.03;3.97;;;10.10;99.90;;;;;;6127292;23;20186;-74
2021/04/10 13:17:06;;;;;;;6.50;4.13;;;10.00;99.90;;;;;;6127231;23;20179;-72
2021/04/10 13:19:32;;;;;;;5.40;3.57;;;9.90;99.90;;;;;;6127053;23;20199;-72
2021/04/10 13:21:59;;;;;;;7.73;4.10;;;10.00;99.90;;;;;;6127176;23;20475;-72
2021/04/10 13:24:25;;;;;;;6.47;4.17;;;10.00;99.90;;;;;;6127084;23;20213;-71
2021/04/10 13:26:52;;;;;;;7.33;4.30;;;9.90;99.90;;;;;;6126857;23;20179;-71
2021/04/10 13:29:19;;;;;;;6.93;4.50;;;9.90;99.90;;;;;;6127159;23;20224;-71
2021/04/10 13:31:46;;;;;;;7.27;4.03;;;9.90;99.90;;;;;;6127134;23;20190;-72
2021/04/10 13:34:14;;;;;;;6.40;3.90;;;9.90;99.90;;;;;;6126995;23;20183;-71
2021/04/10 13:36:40;;;;;;;8.07;4.90;;;10.00;99.90;;;;;;6127185;23;20265;-72
2021/04/10 13:39:08;;;;;;;8.50;4.60;;;10.10;99.90;;;;;;6127133;23;20207;-72
2021/04/10 13:41:35;;;;;;;8.13;5.10;;;10.10;99.90;;;;;;6127143;23;20230;-73
2021/04/10 13:44:01;;;;;;;8.20;4.57;;;10.20;99.90;;;;;;6126820;23;20210;-71
2021/04/10 13:46:27;;;;;;;7.63;4.43;;;10.20;99.90;;;;;;6127154;23;20210;-71
2021/04/10 13:48:54;;;;;;;7.47;3.63;;;10.20;99.90;;;;;;6126493;23;20203;-72
2021/04/10 13:51:21;;;;;;;5.03;2.93;;;10.10;99.90;;;;;;6127023;23;20203;-73
2021/04/10 13:53:47;;;;;;;5.20;3.00;;;9.70;99.90;;;;;;6126600;23;20638;-72
2021/04/10 13:56:13;;;;;;;5.80;3.37;;;9.60;99.90;;;;;;6126266;23;20182;-72
2021/04/10 13:58:39;;;;;;;6.07;3.27;;;9.40;99.90;;;;;;6126645;23;20199;-71
2021/04/10 14:01:06;;;;;;;7.07;3.50;;;9.50;99.90;;;;;;6126743;23;20183;-72
2021/04/10 14:03:32;;;;;;;8.80;4.00;;;9.60;99.90;;;;;;6126419;23;20230;-72
2021/04/10 14:06:00;;;;;;;4.57;3.43;;;9.70;99.90;;;;;;6126846;23;20210;-71
2021/04/10 14:08:26;;;;;;;7.63;4.10;;;9.50;99.90;;;;;;6126775;23;20462;-71
2021/04/10 14:10:53;;;;;;;8.17;4.37;;;9.60;99.90;;;;;;6126655;23;20321;-75
2021/04/10 14:13:20;;;;;;;9.37;4.87;;;9.70;99.90;;;;;;6122224;23;20545;-71
2021/04/10 14:15:46;;;;;;;8.53;5.10;;;9.80;99.90;;;;;;6125924;23;20201;-72
2021/04/10 14:18:13;;;;;;;6.63;4.10;;;10.00;99.90;;;;;;6125866;23;20221;-71
2021/04/10 14:20:42;;;;;;;6.27;4.10;;;10.00;99.90;;;;;;6126198;23;20233;-71
2021/04/10 14:23:11;;;;;;;6.93;4.10;;;10.00;99.90;;;;;;6125792;23;20238;-71
2021/04/10 14:25:38;;;;;;;7.33;4.60;;;9.70;99.90;;;;;;6121830;23;20210;-70
2021/04/10 14:28:05;;;;;;;6.83;4.17;;;9.60;99.90;;;;;;6125609;23;20206;-70
2021/04/10 14:30:33;;;;;;;9.23;4.27;;;9.60;99.90;;;;;;6123786;23;20641;-70
2021/04/10 14:33:00;;;;;;;8.33;4.77;;;9.50;99.90;;;;;;6123009;23;20190;-70
2021/04/10 14:35:29;;;;;;;4.77;2.83;;;9.40;99.90;;;;;;6124015;23;20193;-71
2021/04/10 14:37:55;;;;;;;4.07;2.73;;;9.20;99.90;;;;;;6124335;23;20194;-75
2021/04/10 14:40:24;;;;;;;3.10;2.37;;;9.20;99.90;;;;;;6124023;23;20186;-74
2021/04/10 14:42:51;;;;;;;4.10;2.13;;;9.10;99.90;;;;;;6124507;23;20182;-70
2021/04/10 14:45:17;;;;;;;2.60;1.70;;;9.10;99.90;;;;;;6125971;23;20957;-71
2021/04/10 14:47:44;;;;;;;4.17;2.33;;;9.00;99.90;;;;;;6125393;23;20183;-72
2021/04/10 14:50:11;;;;;;;4.33;2.50;;;9.00;99.90;;;;;;6125491;23;20189;-68
2021/04/10 14:52:38;;;;;;;4.30;2.60;;;9.20;99.90;;;;;;6125784;23;20182;-72
2021/04/10 14:55:07;;;;;;;4.03;2.47;;;9.30;99.90;;;;;;6125219;23;20178;-73
2021/04/10 14:57:34;;;;;;;4.10;2.93;;;9.20;99.90;;;;;;6126150;23;20189;-73
2021/04/10 15:00:02;;;;;;;4.63;2.83;;;9.20;99.90;;;;;;6126077;23;20203;-72
2021/04/10 15:02:28;;;;;;;4.80;3.07;;;9.20;99.90;;;;;;6125636;23;20206;-74
2021/04/10 15:04:55;;;;;;;7.60;3.33;;;9.40;99.90;;;;;;6125691;23;20533;-70
2021/04/10 15:07:21;;;;;;;6.43;3.43;;;9.50;99.90;;;;;;6126025;23;20245;-70
2021/04/10 15:09:47;;;;;;;7.00;3.10;;;9.60;99.90;;;;;;6125599;23;20744;-74
2021/04/10 15:12:14;;;;;;;6.77;4.10;;;9.60;99.90;;;;;;6125993;23;20189;-71
2021/04/10 15:14:41;;;;;;;6.90;4.27;;;9.40;99.90;;;;;;6125788;23;20634;-70
2021/04/10 15:17:07;;;;;;;8.27;4.03;;;9.30;99.90;;;;;;6126080;23;20179;-70
2021/04/10 15:19:34;;;;;;;6.63;3.77;;;9.40;99.90;;;;;;6125987;23;20290;-70
2021/04/10 15:22:00;;;;;;;7.50;3.70;;;9.40;99.90;;;;;;6125783;23;20637;-69
2021/04/10 15:24:27;;;;;;;5.40;3.53;;;9.40;99.90;;;;;;6125897;23;20206;-69
2021/04/10 15:26:53;;;;;;;6.27;3.30;;;9.60;99.90;;;;;;6125975;23;20188;-68
2021/04/10 15:29:19;;;;;;;7.13;3.87;;;9.60;99.90;;;;;;6126064;23;20199;-68
2021/04/10 15:31:48;;;;;;;5.27;3.27;;;9.60;99.90;;;;;;6125698;23;20179;-71
2021/04/10 15:34:15;;;;;;;5.13;3.33;;;9.40;99.90;;;;;;6125244;23;20186;-68
2021/04/10 15:36:42;;;;;;;11.40;3.87;;;9.50;99.90;;;;;;6127768;23;20179;-68
2021/04/10 15:39:09;;;;;;;6.23;3.20;;;9.70;99.90;;;;;;6127919;23;20198;-70
2021/04/10 15:41:35;;;;;;;7.43;4.17;;;9.90;99.90;;;;;;6127835;23;20180;-71
2021/04/10 15:44:03;;;;;;;5.97;3.43;;;9.80;99.90;;;;;;6127917;23;20179;-71
2021/04/10 15:46:29;;;;;;;6.70;3.93;;;9.70;99.90;;;;;;6127118;23;20189;-70
2021/04/10 15:48:56;;;;;;;5.90;3.50;;;9.70;99.90;;;;;;6127662;23;20199;-71
2021/04/10 15:51:22;;;;;;;5.53;3.60;;;9.60;99.90;;;;;;6127757;23;20183;-70
2021/04/10 15:53:49;;;;;;;7.33;3.77;;;9.40;99.90;;;;;;6127804;23;20275;-71
2021/04/10 15:56:15;;;;;;;6.97;3.57;;;9.40;99.90;;;;;;6127592;23;20192;-70
2021/04/10 15:58:42;;;;;;;6.03;3.97;;;9.50;99.90;;;;;;6127380;23;20206;-72
2021/04/10 16:01:09;;;;;;;6.60;4.00;;;9.60;99.90;;;;;;6127307;23;20179;-68
2021/04/10 16:03:36;;;;;;;6.73;3.70;;;9.70;99.90;;;;;;6127260;23;20178;-70
2021/04/10 16:06:03;;;;;;;7.07;4.20;;;9.80;99.90;;;;;;6127460;23;20218;-68
2021/04/10 16:08:29;;;;;;;7.67;4.40;;;9.80;99.90;;;;;;6127407;23;20719;-68
2021/04/10 16:10:55;;;;;;;7.63;4.47;;;9.80;99.90;;;;;;6127379;23;20506;-67
2021/04/10 16:13:22;;;;;;;7.80;4.77;;;9.90;99.90;;;;;;6127396;23;20554;-67
2021/04/10 16:15:48;;;;;;;8.90;4.70;;;9.80;99.90;;;;;;6127041;23;20535;-67
2021/04/10 16:18:15;;;;;;;10.83;4.93;;;9.90;99.90;;;;;;6127382;23;20199;-67
2021/04/10 16:20:41;;;;;;;7.00;4.23;;;9.80;99.90;;;;;;6127353;23;20183;-69
2021/04/10 16:23:08;;;;;;;8.77;4.70;;;9.60;99.90;;;;;;6127499;23;20178;-67
2021/04/10 16:25:35;;;;;;;8.93;4.83;;;9.50;99.90;;;;;;6127196;23;20210;-68
2021/04/10 16:28:01;;;;;;;7.37;4.63;;;9.40;99.90;;;;;;6126434;23;20638;-68
2021/04/10 16:30:29;;;;;;;9.33;4.67;;;9.40;99.90;;;;;;6126985;23;20186;-68
2021/04/10 16:32:56;;;;;;;6.67;4.37;;;9.40;99.90;;;;;;6126752;23;20195;-69
2021/04/10 16:35:23;;;;;;;6.97;4.53;;;9.40;99.90;;;;;;6127014;23;20256;-68
2021/04/10 16:37:50;;;;;;;10.57;4.80;;;9.30;99.90;;;;;;6127407;23;20247;-68
2021/04/10 16:40:20;;;;;;;8.47;4.30;;;9.20;99.90;;;;;;6127307;23;20178;-68
2021/04/10 16:42:46;;;;;;;8.53;5.00;;;9.10;99.90;;;;;;6126397;23;20630;-67
2021/04/10 16:45:13;;;;;;;8.10;4.97;;;9.30;99.90;;;;;;6127288;23;20241;-68
2021/04/10 16:47:40;;;;;;;10.83;5.90;;;9.40;99.90;;;;;;6126709;23;20186;-69
2021/04/10 16:50:07;;;;;;;9.60;5.47;;;9.50;99.90;;;;;;6127084;23;20198;-68
2021/04/10 16:52:34;;;;;;;11.17;6.20;;;9.60;99.90;;;;;;6127142;23;20568;-69
2021/04/10 16:55:02;;;;;;;12.30;6.30;;;9.70;99.90;;;;;;6126950;23;20253;-68
2021/04/10 16:57:29;;;;;;;11.30;6.03;;;9.70;99.90;;;;;;6126223;23;20189;-69
2021/04/10 16:59:56;;;;;;;11.67;6.50;;;9.70;99.90;;;;;;6127312;23;20521;-68
2021/04/10 17:02:22;;;;;;;11.90;7.40;;;9.70;99.90;;;;;;6126975;23;20179;-70
2021/04/10 17:04:50;;;;;;;10.50;6.37;;;9.60;99.90;;;;;;6126895;23;20210;-68
2021/04/10 17:07:23;;;;;;;12.43;6.40;;;9.70;99.90;;;;;;6126755;23;20182;-68
2021/04/10 17:09:49;;;;;;;11.73;6.50;;;9.60;99.90;;;;;;6126585;23;20547;-68
2021/04/10 17:12:16;;;;;;;11.67;5.50;;;9.70;99.90;;;;;;6126931;23;20179;-67
2021/04/10 17:14:43;;;;;;;13.73;8.10;;;9.60;99.90;;;;;;6126831;23;20198;-68
2021/04/10 17:17:09;;;;;;;12.40;7.60;;;9.60;99.90;;;;;;6122506;23;20190;-71
2021/04/10 17:19:37;;;;;;;23.67;10.30;;;9.50;99.90;;;;;;6125027;23;20205;-71
2021/04/10 17:22:04;;;;;;;16.93;8.93;;;9.50;99.90;;;;;;6125096;23;20182;-70
2021/04/10 17:24:31;;;;;;;12.13;6.37;;;9.50;99.90;;;;;;6123871;23;20209;-72
2021/04/10 17:26:57;;;;;;;14.27;7.93;;;9.40;99.90;;;;;;6125827;23;20186;-71
2021/04/10 17:29:24;;;;;;;14.10;6.90;;;9.40;99.90;;;;;;6124627;23;20199;-70
2021/04/10 17:31:51;;;;;;;13.67;6.90;;;9.30;99.90;;;;;;6125960;23;20183;-71
2021/04/10 17:34:18;;;;;;;12.20;6.87;;;9.30;99.90;;;;;;6126624;23;20186;-70
2021/04/10 17:36:44;;;;;;;11.90;7.13;;;9.20;99.90;;;;;;6126167;23;20186;-70
2021/04/10 17:39:11;;;;;;;11.60;7.20;;;9.10;99.90;;;;;;6126640;23;20661;-70
2021/04/10 17:41:37;;;;;;;12.97;6.33;;;9.10;99.90;;;;;;6126718;23;20269;-70
2021/04/10 17:44:04;;;;;;;13.43;7.80;;;9.00;99.90;;;;;;6126966;23;20178;-70
2021/04/10 17:46:31;;;;;;;12.30;6.93;;;9.00;99.90;;;;;;6126916;23;20498;-70
2021/04/10 17:48:58;;;;;;;14.80;8.03;;;9.00;99.90;;;;;;6126476;23;20203;-69
2021/04/10 17:51:25;;;;;;;11.47;6.10;;;9.00;99.90;;;;;;6126683;23;20483;-70
2021/04/10 17:53:53;;;;;;;13.10;6.83;;;9.00;99.90;;;;;;6126835;23;20487;-70
2021/04/10 17:56:19;;;;;;;11.73;6.57;;;9.00;99.90;;;;;;6126577;23;20229;-70
2021/04/10 17:58:48;;;;;;;9.67;5.53;;;9.00;99.90;;;;;;6126258;23;20790;-70
2021/04/10 18:01:16;;;;;;;11.87;5.40;;;8.90;99.90;;;;;;6126039;23;20186;-70
2021/04/10 18:03:42;;;;;;;9.67;5.40;;;8.80;99.90;;;;;;6126022;23;20182;-71
2021/04/10 18:06:10;;;;;;;11.40;5.60;;;8.70;99.90;;;;;;6126273;23;20218;-70
2021/04/10 18:08:37;;;;;;;8.83;5.67;;;8.60;99.90;;;;;;6126540;23;20199;-71
2021/04/10 18:11:03;;;;;;;8.40;4.97;;;8.60;99.90;;;;;;6126446;23;20313;-70
2021/04/10 18:13:29;;;;;;;8.20;4.57;;;8.60;99.90;;;;;;6126084;23;20479;-72
2021/04/10 18:15:56;;;;;;;7.90;4.60;;;8.50;99.90;;;;;;6126471;23;20189;-71
2021/04/10 18:18:23;;;;;;;10.70;5.33;;;8.50;99.90;;;;;;6125520;23;20207;-71
2021/04/10 18:20:50;;;;;;;9.10;5.83;;;8.40;99.90;;;;;;6126276;23;20187;-71
2021/04/10 18:23:25;;;;;;;9.23;5.90;;;8.40;99.90;;;;;;6126577;23;20183;-71
2021/04/10 18:25:51;;;;;;;9.90;5.90;;;8.40;99.90;;;;;;6125589;23;20681;-70
2021/04/10 18:28:18;;;;;;;9.83;4.87;;;8.40;99.90;;;;;;6125900;23;20209;-71
2021/04/10 18:30:45;;;;;;;9.73;5.90;;;8.30;99.90;;;;;;6126138;23;20546;-70
2021/04/10 18:33:13;;;;;;;8.33;5.63;;;8.20;99.90;;;;;;6125790;23;20238;-71
2021/04/10 18:35:40;;;;;;;10.60;5.43;;;8.30;99.90;;;;;;6126129;23;20201;-70
2021/04/10 18:38:07;;;;;;;8.50;5.03;;;8.30;99.90;;;;;;6125828;23;20203;-71
2021/04/10 18:40:34;;;;;;;8.13;5.13;;;8.30;99.90;;;;;;6126139;23;20193;-70
2021/04/10 18:43:00;;;;;;;8.77;4.97;;;8.10;99.90;;;;;;6125816;23;20658;-71
2021/04/10 18:45:27;;;;;;;10.03;5.27;;;8.00;99.90;;;;;;6122544;23;20218;-70
2021/04/10 18:47:53;;;;;;;8.17;5.40;;;8.10;99.90;;;;;;6124571;23;20197;-71
2021/04/10 18:50:20;;;;;;;10.23;6.13;;;8.00;99.90;;;;;;6124188;23;20179;-70
2021/04/10 18:52:47;;;;;;;9.07;5.07;;;8.10;99.90;;;;;;6125032;23;20302;-71
2021/04/10 18:55:14;;;;;;;8.70;5.30;;;8.20;99.90;;;;;;6124415;23;20190;-71
2021/04/10 18:57:41;;;;;;;10.10;5.73;;;8.20;99.90;;;;;;6124551;23;20186;-70
2021/04/10 19:00:10;;;;;;;9.47;5.20;;;8.10;99.90;;;;;;6124981;23;20206;-70
2021/04/10 19:02:36;;;;;;;10.07;5.53;;;8.20;99.90;;;;;;6124157;23;20183;-70
2021/04/10 19:05:04;;;;;;;8.43;5.40;;;8.20;99.90;;;;;;6124484;23;20210;-70
2021/04/10 19:07:30;;;;;;;10.23;5.77;;;8.20;99.90;;;;;;6125119;23;20185;-70
2021/04/10 19:09:56;;;;;;;8.97;5.23;;;8.20;99.90;;;;;;6125093;23;20209;-70
2021/04/10 19:12:22;;;;;;;9.93;5.43;;;8.20;99.90;;;;;;6126837;23;20202;-71
2021/04/10 19:14:49;;;;;;;10.50;5.87;;;8.10;99.90;;;;;;6127002;23;20237;-71
2021/04/10 19:17:16;;;;;;;9.17;5.33;;;8.00;99.90;;;;;;6126301;23;20734;-71
2021/04/10 19:19:42;;;;;;;7.20;4.90;;;7.90;99.90;;;;;;6126676;23;20257;-71
2021/04/10 19:22:14;;;;;;;13.73;6.83;;;8.00;99.90;;;;;;6126987;23;20182;-71
2021/04/10 19:24:41;;;;;;;9.67;5.40;;;7.90;99.90;;;;;;6124717;23;20206;-69
2021/04/10 19:27:09;;;;;;;11.37;5.20;;;7.90;99.90;;;;;;6125939;23;20195;-68
2021/04/10 19:29:35;;;;;;;9.17;6.00;;;7.90;99.90;;;;;;6126680;23;20199;-68
2021/04/10 19:32:02;;;;;;;10.80;6.20;;;8.00;99.90;;;;;;6126268;23;20297;-69
2021/04/10 19:34:29;;;;;;;10.93;6.00;;;8.00;99.90;;;;;;6126582;23;20187;-70
2021/04/10 19:36:55;;;;;;;9.20;5.10;;;8.10;99.90;;;;;;6126715;23;20182;-68
2021/04/10 19:39:21;;;;;;;10.77;5.97;;;8.20;99.90;;;;;;6126642;23;20206;-69
2021/04/10 19:41:47;;;;;;;11.00;5.67;;;8.10;99.90;;;;;;6126498;23;20182;-69
2021/04/10 19:44:14;;;;;;;11.10;5.90;;;8.10;99.90;;;;;;6127765;23;20245;-69
2021/04/10 19:46:40;;;;;;;8.67;5.50;;;7.90;99.90;;;;;;6126797;23;20211;-71
2021/04/10 19:49:08;;;;;;;9.07;5.23;;;8.00;99.90;;;;;;6127167;23;20206;-71
2021/04/10 19:51:36;;;;;;;7.87;5.23;;;8.10;99.90;;;;;;6126486;23;20630;-71
2021/04/10 19:54:03;;;;;;;8.67;5.50;;;8.10;99.90;;;;;;6126632;23;20606;-70
2021/04/10 19:56:32;;;;;;;8.50;5.37;;;7.90;99.90;;;;;;6126210;23;20669;-71
2021/04/10 19:58:58;;;;;;;7.63;4.87;;;7.80;99.90;;;;;;6126436;23;20203;-71
2021/04/10 20:01:27;;;;;;;7.87;5.13;;;7.80;99.90;;;;;;6126688;23;20210;-71
2021/04/10 20:03:53;;;;;;;9.33;5.43;;;7.90;99.90;;;;;;6126257;23;20187;-71
2021/04/10 20:06:22;;;;;;;9.77;5.80;;;7.90;99.90;;;;;;6126826;23;20593;-70
2021/04/10 20:08:50;;;;;;;10.37;5.80;;;8.00;99.90;;;;;;6126332;23;20203;-70
2021/04/10 20:11:17;;;;;;;11.47;6.73;;;8.10;99.90;;;;;;6125839;23;20815;-70
2021/04/10 20:13:45;;;;;;;10.53;6.27;;;8.00;99.90;;;;;;6126645;23;20186;-70
2021/04/10 20:16:11;;;;;;;9.23;5.90;;;8.00;99.90;;;;;;6125981;23;20183;-70
2021/04/10 20:18:38;;;;;;;9.07;5.43;;;8.00;99.90;;;;;;6125924;23;20202;-70
2021/04/10 20:21:06;;;;;;;10.53;6.10;;;8.00;99.90;;;;;;6123973;23;20621;-70
